createdAt,value
2022-10-07T00:00:00.300Z,8.9
2022-10-07T00:05:00.210Z,8.8
2022-10-07T00:10:00.254Z,8.7
2022-10-07T00:15:00.243Z,8.7
2022-10-07T00:20:00.234Z,8.6
2022-10-07T00:25:00.197Z,8.6
2022-10-07T00:30:00.297Z,8.5
2022-10-07T00:35:00.245Z,8.4
2022-10-07T00:40:00.226Z,8.4
2022-10-07T00:45:00.185Z,8.4
2022-10-07T00:50:00.274Z,8.4
2022-10-07T00:55:00.215Z,8.3
2022-10-07T01:00:00.252Z,8.3
2022-10-07T01:05:00.229Z,8.2
2022-10-07T01:10:00.193Z,8.2
2022-10-07T01:15:00.163Z,8.2
2022-10-07T01:20:00.214Z,8.1
2022-10-07T01:25:00.300Z,8.1
2022-10-07T01:30:00.262Z,8.1
2022-10-07T01:35:00.187Z,8
2022-10-07T01:40:00.283Z,8
2022-10-07T01:45:00.281Z,8
2022-10-07T01:50:00.270Z,7.9
2022-10-07T01:55:00.233Z,7.9
2022-10-07T02:00:00.266Z,7.8
2022-10-07T02:05:00.195Z,7.8
2022-10-07T02:10:00.240Z,7.8
2022-10-07T02:15:00.236Z,7.8
2022-10-07T02:20:00.317Z,7.7
2022-10-07T02:25:00.222Z,7.7
2022-10-07T02:30:00.253Z,7.6
2022-10-07T02:35:00.176Z,7.6
2022-10-07T02:40:00.239Z,7.6
2022-10-07T02:45:00.195Z,7.6
2022-10-07T02:50:00.261Z,7.6
2022-10-07T02:55:00.270Z,7.6
2022-10-07T03:00:00.311Z,7.5
2022-10-07T03:05:00.287Z,7.4
2022-10-07T03:10:00.281Z,7.4
2022-10-07T03:15:00.253Z,7.4
2022-10-07T03:20:00.262Z,7.3
2022-10-07T03:25:00.304Z,7.3
2022-10-07T03:30:00.331Z,7.3
2022-10-07T03:35:00.268Z,7.3
2022-10-07T03:40:00.298Z,7.3
2022-10-07T03:45:00.290Z,7.2
2022-10-07T03:50:00.297Z,7.2
2022-10-07T03:55:00.268Z,7.2
2022-10-07T04:00:00.326Z,7.2
2022-10-07T04:05:00.251Z,7.2
2022-10-07T04:10:00.276Z,7.2
2022-10-07T04:15:00.242Z,7.2
2022-10-07T04:20:00.293Z,7.2
2022-10-07T04:25:00.250Z,7.1
2022-10-07T04:30:00.335Z,7.1
2022-10-07T04:35:00.252Z,7.1
2022-10-07T04:40:01.243Z,7.1
2022-10-07T04:45:00.260Z,7.1
2022-10-07T04:50:00.248Z,7.1
2022-10-07T04:55:00.202Z,7.1
2022-10-07T05:00:00.348Z,7.1
2022-10-07T05:05:00.248Z,7.1
2022-10-07T05:10:00.276Z,7.1
2022-10-07T05:15:00.251Z,7
2022-10-07T05:20:00.265Z,7
2022-10-07T05:25:00.189Z,7
2022-10-07T05:30:00.306Z,7
2022-10-07T05:35:00.292Z,6.9
2022-10-07T05:40:00.270Z,6.9
2022-10-07T05:45:00.273Z,6.9
2022-10-07T05:50:00.265Z,6.8
2022-10-07T05:55:00.247Z,6.8
2022-10-07T06:00:00.326Z,6.8
2022-10-07T06:05:00.201Z,6.8
2022-10-07T06:10:00.271Z,6.7
2022-10-07T06:15:00.286Z,6.7
2022-10-07T06:20:00.257Z,6.7
2022-10-07T06:25:00.198Z,6.7
2022-10-07T06:30:00.313Z,6.7
2022-10-07T06:35:00.254Z,6.8
2022-10-07T06:40:00.270Z,6.8
2022-10-07T06:45:00.255Z,6.8
2022-10-07T06:50:00.289Z,6.9
2022-10-07T06:55:00.381Z,6.9
2022-10-07T07:00:00.313Z,7
2022-10-07T07:05:00.231Z,7
2022-10-07T07:10:00.278Z,7.1
2022-10-07T07:15:00.281Z,7.1
2022-10-07T07:20:00.305Z,7.2
2022-10-07T07:25:00.201Z,7.3
2022-10-07T07:30:00.274Z,7.5
2022-10-07T07:35:00.245Z,7.6
2022-10-07T07:40:00.233Z,7.7
2022-10-07T07:45:00.237Z,7.9
2022-10-07T07:50:00.272Z,8
2022-10-07T07:55:00.251Z,8.1
2022-10-07T08:00:00.290Z,8.4
2022-10-07T08:05:00.197Z,8.6
2022-10-07T08:10:00.268Z,8.9
2022-10-07T08:15:00.215Z,9.1
2022-10-07T08:20:00.279Z,9.4
2022-10-07T08:25:00.327Z,9.6
2022-10-07T08:30:00.259Z,9.9
2022-10-07T08:35:00.250Z,10
2022-10-07T08:40:00.264Z,10.2
2022-10-07T08:45:00.204Z,10.5
2022-10-07T08:50:00.285Z,10.7
2022-10-07T08:55:00.229Z,11
2022-10-07T09:00:00.269Z,11.1
2022-10-07T09:05:00.235Z,11.4
2022-10-07T09:10:00.255Z,11.6
2022-10-07T09:15:00.269Z,11.7
2022-10-07T09:20:00.263Z,11.9
2022-10-07T09:25:00.198Z,12.1
2022-10-07T09:30:00.328Z,12.3
2022-10-07T09:35:00.243Z,12.4
2022-10-07T09:40:00.226Z,12.5
2022-10-07T09:45:00.270Z,12.7
2022-10-07T09:50:00.264Z,12.8
2022-10-07T09:55:00.193Z,13
2022-10-07T10:00:00.287Z,13.1
2022-10-07T10:05:00.305Z,13.3
2022-10-07T10:10:00.275Z,13.4
2022-10-07T10:15:00.192Z,13.5
2022-10-07T10:20:00.300Z,13.6
2022-10-07T10:25:00.237Z,13.8
2022-10-07T10:30:00.339Z,13.8
2022-10-07T10:35:00.245Z,14
2022-10-07T10:40:00.257Z,14
2022-10-07T10:45:00.202Z,14.2
2022-10-07T10:50:00.258Z,14.3
2022-10-07T10:55:00.259Z,14.4
2022-10-07T11:00:00.334Z,14.5
2022-10-07T11:05:00.232Z,14.6
2022-10-07T11:10:00.345Z,14.8
2022-10-07T11:15:00.278Z,14.9
2022-10-07T11:20:00.452Z,15
2022-10-07T11:25:00.296Z,15
2022-10-07T11:30:00.288Z,15.1
2022-10-07T11:35:00.297Z,15.1
2022-10-07T11:40:00.275Z,15.2
2022-10-07T11:45:00.250Z,15.2
2022-10-07T11:50:00.266Z,15.3
2022-10-07T11:55:00.352Z,15.3
2022-10-07T12:00:00.307Z,15.4
2022-10-07T12:05:00.230Z,15.4
2022-10-07T12:10:00.230Z,15.5
2022-10-07T12:15:00.303Z,15.6
2022-10-07T12:20:00.226Z,15.7
2022-10-07T12:25:00.241Z,15.8
2022-10-07T12:30:00.385Z,15.8
2022-10-07T12:35:00.258Z,15.9
2022-10-07T12:40:00.258Z,16
2022-10-07T12:45:00.203Z,16.1
2022-10-07T12:50:00.302Z,16.1
2022-10-07T12:55:00.245Z,16.1
2022-10-07T13:00:00.306Z,16.2
2022-10-07T13:05:00.221Z,16.2
2022-10-07T13:10:00.276Z,16.3
2022-10-07T13:15:00.201Z,16.4
2022-10-07T13:20:00.295Z,16.4
2022-10-07T13:25:00.235Z,16.5
2022-10-07T13:30:00.528Z,16.5
2022-10-07T13:35:00.281Z,16.7
2022-10-07T13:40:00.370Z,16.7
2022-10-07T13:45:00.262Z,16.7
2022-10-07T13:50:00.339Z,16.8
2022-10-07T13:55:00.248Z,16.8
2022-10-07T14:00:00.477Z,16.9
2022-10-07T14:05:00.203Z,17
2022-10-07T14:10:00.520Z,17
2022-10-07T14:15:00.265Z,17
2022-10-07T14:20:05.121Z,17.1
2022-10-07T14:25:00.255Z,17.1
2022-10-07T14:30:00.309Z,17.1
2022-10-07T14:35:00.217Z,17.2
2022-10-07T14:40:00.294Z,17.2
2022-10-07T14:45:00.284Z,17.2
2022-10-07T14:50:00.289Z,17.2
2022-10-07T14:55:00.250Z,17.3
2022-10-07T15:00:00.310Z,17.3
2022-10-07T15:05:00.389Z,17.3
2022-10-07T15:10:00.284Z,17.3
2022-10-07T15:15:00.245Z,17.4
2022-10-07T15:20:00.233Z,17.4
2022-10-07T15:25:00.206Z,17.4
2022-10-07T15:30:00.311Z,17.4
2022-10-07T15:35:00.271Z,17.3
2022-10-07T15:40:00.253Z,17.3
2022-10-07T15:45:00.194Z,17.2
2022-10-07T15:50:00.242Z,17.2
2022-10-07T15:55:05.077Z,17.1
2022-10-07T16:00:00.258Z,17
2022-10-07T16:05:00.195Z,17
2022-10-07T16:10:00.264Z,16.9
2022-10-07T16:15:00.228Z,16.8
2022-10-07T16:20:00.254Z,16.7
2022-10-07T16:25:00.274Z,16.6
2022-10-07T16:30:00.283Z,16.5
2022-10-07T16:35:00.282Z,16.4
2022-10-07T16:40:00.280Z,16.3
2022-10-07T16:45:00.244Z,16.2
2022-10-07T16:50:00.292Z,16.1
2022-10-07T16:55:00.197Z,15.9
2022-10-07T17:00:00.283Z,15.8
2022-10-07T17:05:00.220Z,15.7
2022-10-07T17:10:00.264Z,15.6
2022-10-07T17:15:00.242Z,15.4
2022-10-07T17:20:00.235Z,15.3
2022-10-07T17:25:00.249Z,15.1
2022-10-07T17:30:00.279Z,15
2022-10-07T17:35:00.250Z,14.8
2022-10-07T17:40:00.280Z,14.7
2022-10-07T17:45:00.276Z,14.5
2022-10-07T17:50:00.251Z,14.3
2022-10-07T17:55:00.248Z,14.2
2022-10-07T18:00:00.284Z,14
2022-10-07T18:05:00.269Z,13.9
2022-10-07T18:10:00.237Z,13.7
2022-10-07T18:15:00.280Z,13.6
2022-10-07T18:20:00.232Z,13.5
2022-10-07T18:25:00.337Z,13.4
2022-10-07T18:30:00.321Z,13.2
2022-10-07T18:35:00.231Z,13.1
2022-10-07T18:40:00.221Z,13
2022-10-07T18:45:00.286Z,12.8
2022-10-07T18:50:00.299Z,12.7
2022-10-07T18:55:00.245Z,12.6
2022-10-07T19:00:00.338Z,12.5
2022-10-07T19:05:00.231Z,12.4
2022-10-07T19:10:00.252Z,12.3
2022-10-07T19:15:00.584Z,12.2
2022-10-07T19:20:00.249Z,12.1
2022-10-07T19:25:00.279Z,12
2022-10-07T19:30:00.295Z,12
2022-10-07T19:35:00.289Z,11.8
2022-10-07T19:40:00.311Z,11.8
2022-10-07T19:45:00.261Z,11.7
2022-10-07T19:50:00.328Z,11.7
2022-10-07T19:55:00.265Z,11.6
2022-10-07T20:00:00.279Z,11.5
2022-10-07T20:05:00.296Z,11.4
2022-10-07T20:10:00.267Z,11.4
2022-10-07T20:15:00.235Z,11.3
2022-10-07T20:20:00.247Z,11.2
2022-10-07T20:25:00.212Z,11.2
2022-10-07T20:30:00.309Z,11.1
2022-10-07T20:35:00.252Z,11.1
2022-10-07T20:40:00.290Z,11
2022-10-07T20:45:00.289Z,11
2022-10-07T20:50:00.267Z,10.9
2022-10-07T20:55:00.265Z,10.9
2022-10-07T21:00:00.297Z,10.8
2022-10-07T21:05:00.213Z,10.7
2022-10-07T21:10:00.216Z,10.6
2022-10-07T21:15:00.142Z,10.6
2022-10-07T21:20:00.261Z,10.6
2022-10-07T21:25:00.177Z,10.5
2022-10-07T21:30:00.212Z,10.5
2022-10-07T21:35:00.211Z,10.4
2022-10-07T21:40:00.213Z,10.4
2022-10-07T21:45:00.201Z,10.3
2022-10-07T21:50:00.206Z,10.3
2022-10-07T21:55:00.155Z,10.2
2022-10-07T22:00:00.276Z,10.2
2022-10-07T22:05:00.143Z,10.2
2022-10-07T22:10:00.230Z,10.3
2022-10-07T22:15:00.139Z,10.4
2022-10-07T22:20:00.251Z,10.4
2022-10-07T22:25:00.138Z,10.5
2022-10-07T22:30:00.215Z,10.6
2022-10-07T22:35:00.203Z,10.6
2022-10-07T22:40:00.203Z,10.7
2022-10-07T22:45:00.197Z,10.7
2022-10-07T22:50:00.298Z,10.8
2022-10-07T22:55:00.145Z,10.8
2022-10-07T23:00:00.266Z,10.8
2022-10-07T23:05:00.231Z,10.8
2022-10-07T23:10:00.200Z,10.8
2022-10-07T23:15:00.217Z,10.8
2022-10-07T23:20:00.212Z,10.8
2022-10-07T23:25:00.179Z,10.8
2022-10-07T23:30:00.236Z,10.8
2022-10-07T23:35:00.141Z,10.8
2022-10-07T23:40:00.281Z,10.8
2022-10-07T23:45:00.232Z,10.8
2022-10-07T23:50:00.261Z,10.8
2022-10-07T23:55:00.143Z,10.8
